Time;durP1;ratioP1;P1;durP2;ratioP2;P2;SDS_P1;SDS_P2;PMS_P1;PMS_P2;Temp;Humidity;BMP_temperature;BMP_pressure;BME280_temperature;BME280_humidity;BME280_pressure;Samples;Min_cycle;Max_cycle;Signal;HPM_P1;HPM_P2
2022/08/09 00:02:05;;;;;;;6.57;4.30;;;;;;;18.88;100.00;100470.13;1782265;79;20954;-57
2022/08/09 00:04:33;;;;;;;6.33;4.60;;;;;;;18.85;100.00;100473.23;1782603;80;21034;-57
2022/08/09 00:07:00;;;;;;;7.10;4.63;;;;;;;18.84;100.00;100466.34;1781860;80;20979;-61
2022/08/09 00:09:28;;;;;;;7.00;4.57;;;;;;;18.82;100.00;100464.44;1782705;80;21521;-56
2022/08/09 00:11:55;;;;;;;6.67;4.37;;;;;;;18.78;100.00;100466.73;1781573;80;20872;-64
2022/08/09 00:14:23;;;;;;;6.60;4.83;;;;;;;18.77;100.00;100468.30;1782454;80;21085;-57
2022/08/09 00:16:50;;;;;;;6.03;4.27;;;;;;;18.77;100.00;100467.78;1782521;79;21302;-56
2022/08/09 00:19:18;;;;;;;10.50;4.97;;;;;;;18.67;100.00;100469.64;1781942;80;21488;-57
2022/08/09 00:21:45;;;;;;;7.03;4.90;;;;;;;18.64;100.00;100470.65;1782924;80;21412;-57
2022/08/09 00:24:12;;;;;;;7.20;4.63;;;;;;;18.61;100.00;100470.59;1781516;80;20932;-57
2022/08/09 00:26:40;;;;;;;6.70;4.77;;;;;;;18.58;100.00;100472.88;1782701;80;21439;-56
2022/08/09 00:29:07;;;;;;;9.63;4.60;;;;;;;18.52;100.00;100471.15;1782293;79;21045;-58
2022/08/09 00:31:34;;;;;;;9.80;5.20;;;;;;;18.51;100.00;100474.83;1783001;79;22352;-56
2022/08/09 00:34:01;;;;;;;8.57;5.57;;;;;;;18.45;100.00;100476.05;1782829;79;21242;-59
2022/08/09 00:36:28;;;;;;;7.80;4.83;;;;;;;18.42;100.00;100482.30;1782595;80;21156;-57
2022/08/09 00:38:55;;;;;;;6.50;4.90;;;;;;;18.41;100.00;100484.14;1782289;79;21801;-58
2022/08/09 00:41:23;;;;;;;8.03;5.17;;;;;;;18.41;100.00;100472.75;1782484;80;20935;-56
2022/08/09 00:43:51;;;;;;;7.97;5.37;;;;;;;18.36;100.00;100470.00;1782990;80;21001;-59
2022/08/09 00:46:18;;;;;;;6.80;5.10;;;;;;;18.35;100.00;100474.48;1782689;80;22131;-57
2022/08/09 00:48:45;;;;;;;9.20;5.50;;;;;;;18.32;100.00;100472.81;1782637;80;21010;-56
2022/08/09 00:51:13;;;;;;;7.47;4.60;;;;;;;18.28;100.00;100465.07;1782349;79;20927;-56
2022/08/09 00:53:40;;;;;;;11.03;6.07;;;;;;;18.30;100.00;100472.26;1782819;79;21506;-57
2022/08/09 00:56:08;;;;;;;8.37;5.67;;;;;;;18.23;100.00;100470.52;1782161;79;20982;-58
2022/08/09 00:58:35;;;;;;;6.80;5.10;;;;;;;18.23;100.00;100472.36;1781655;80;21365;-57
2022/08/09 01:01:14;;;;;;;7.67;5.47;;;;;;;18.23;100.00;100476.31;1781876;80;20995;-57
2022/08/09 01:03:56;;;;;;;9.20;6.23;;;;;;;18.19;100.00;100469.37;1769293;80;21005;-56
2022/08/09 01:06:58;;;;;;;9.40;6.30;;;;;;;18.12;100.00;100469.98;1783137;79;21101;-56
2022/08/09 01:09:48;;;;;;;15.43;6.77;;;;;;;18.09;100.00;100465.16;1782301;80;21109;-56
2022/08/09 01:12:41;;;;;;;8.90;5.73;;;;;;;18.11;100.00;100463.11;1782894;80;21223;-56
2022/08/09 01:15:13;;;;;;;10.43;6.20;;;;;;;18.14;100.00;100465.27;1782597;80;21439;-56
2022/08/09 01:17:50;;;;;;;8.20;5.60;;;;;;;18.19;100.00;100468.57;1781685;80;20988;-59
2022/08/09 01:20:41;;;;;;;8.17;5.67;;;;;;;18.18;100.00;100469.09;1782382;80;20988;-59
2022/08/09 01:23:45;;;;;;;9.03;6.17;;;;;;;18.13;100.00;100468.95;1782703;79;21029;-58
2022/08/09 01:26:55;;;;;;;8.93;6.00;;;;;;;18.09;100.00;100467.00;1782514;79;21103;-56
2022/08/09 01:29:35;;;;;;;12.10;5.93;;;;;;;18.13;100.00;100475.55;1783020;80;21029;-56
2022/08/09 01:32:03;;;;;;;9.93;5.53;;;;;;;18.10;100.00;100465.95;1782641;79;20935;-64
2022/08/09 01:34:31;;;;;;;8.20;5.93;;;;;;;18.05;100.00;100467.17;1782361;80;22022;-60
2022/08/09 01:36:59;;;;;;;7.90;5.93;;;;;;;18.07;100.00;100465.92;1782797;80;21864;-56
2022/08/09 01:39:27;;;;;;;9.07;5.73;;;;;;;18.08;100.00;100461.44;1782432;80;21156;-56
2022/08/09 01:41:54;;;;;;;10.43;5.93;;;;;;;18.05;100.00;100465.84;1782731;80;21030;-58
2022/08/09 01:44:21;;;;;;;9.53;5.70;;;;;;;18.04;100.00;100473.48;1782283;80;20986;-58
2022/08/09 01:46:48;;;;;;;9.80;5.73;;;;;;;18.02;100.00;100468.94;1782450;80;21199;-57
2022/08/09 01:49:18;;;;;;;8.33;5.30;;;;;;;17.96;100.00;100471.97;1782628;80;21753;-57
2022/08/09 01:51:52;;;;;;;7.13;5.33;;;;;;;17.92;100.00;100465.55;1783295;80;21134;-57
2022/08/09 01:54:20;;;;;;;8.10;6.23;;;;;;;17.84;100.00;100472.44;1781476;80;20923;-58
2022/08/09 01:56:47;;;;;;;10.93;5.80;;;;;;;17.88;100.00;100467.00;1782444;79;21105;-56
2022/08/09 01:59:18;;;;;;;11.80;5.83;;;;;;;17.88;100.00;100473.59;1782775;80;21097;-57
2022/08/09 02:01:47;;;;;;;8.25;5.53;;;;;;;17.88;100.00;100472.27;1782676;80;20983;-56
2022/08/09 02:04:14;;;;;;;8.97;6.33;;;;;;;17.82;100.00;100495.61;1782587;80;21153;-57
2022/08/09 02:09:26;;;;;;;8.30;5.77;;;;;;;17.60;100.00;100477.61;1782913;80;21062;-56
2022/08/09 02:11:54;;;;;;;10.37;5.73;;;;;;;17.54;100.00;100480.33;1782469;79;21057;-58
2022/08/09 02:14:22;;;;;;;8.17;5.63;;;;;;;17.46;100.00;100483.59;1782262;80;21070;-57
2022/08/09 02:16:51;;;;;;;10.00;6.27;;;;;;;17.52;100.00;100496.38;1782946;79;21923;-57
2022/08/09 02:19:18;;;;;;;10.33;6.90;;;;;;;17.48;100.00;100474.13;1782641;80;20979;-56
2022/08/09 02:21:49;;;;;;;9.07;6.50;;;;;;;17.45;100.00;100498.29;1783031;80;20988;-66
2022/08/09 02:24:19;;;;;;;;;;;;;;;17.43;100.00;100493.25;1785233;79;21284;-58
2022/08/09 02:26:46;;;;;;;9.53;5.77;;;;;;;17.40;100.00;100506.87;1782390;79;20197;-56
2022/08/09 02:29:18;;;;;;;9.97;6.20;;;;;;;17.45;100.00;100499.09;1782876;80;21131;-56
2022/08/09 02:31:45;;;;;;;10.83;7.23;;;;;;;17.44;100.00;100502.77;1782157;80;21014;-63
2022/08/09 02:34:16;;;;;;;8.33;6.23;;;;;;;17.47;100.00;100506.80;1782113;80;21020;-56
2022/08/09 02:36:47;;;;;;;8.85;5.62;;;;;;;17.57;100.00;100508.88;1783313;80;21042;-56
2022/08/09 02:39:18;;;;;;;8.83;5.53;;;;;;;17.63;100.00;100498.26;1782859;80;21058;-65
2022/08/09 02:41:49;;;;;;;9.25;6.05;;;;;;;17.70;100.00;100498.98;1782821;79;22640;-55
2022/08/09 02:44:19;;;;;;;8.25;5.40;;;;;;;17.73;100.00;100506.96;1782628;80;20998;-55
2022/08/09 02:46:48;;;;;;;8.03;6.20;;;;;;;17.75;100.00;100509.67;1783383;79;20971;-55
2022/08/09 02:49:18;;;;;;;10.40;5.97;;;;;;;17.82;100.00;100507.47;1782860;79;20974;-59
2022/08/09 02:51:50;;;;;;;8.03;5.10;;;;;;;17.93;100.00;100502.75;1783137;79;21488;-55
2022/08/09 02:54:17;;;;;;;10.87;5.20;;;;;;;18.01;100.00;100504.27;1782821;79;21668;-56
2022/08/09 02:56:47;;;;;;;8.37;5.40;;;;;;;18.07;100.00;100498.89;1782575;80;21477;-65
2022/08/09 02:59:14;;;;;;;9.37;5.93;;;;;;;18.22;100.00;100502.39;1782862;80;21109;-55
2022/08/09 03:01:41;;;;;;;7.83;5.47;;;;;;;18.39;100.00;100503.86;1782921;79;21000;-59
2022/08/09 03:04:09;;;;;;;8.70;5.57;;;;;;;18.44;100.00;100504.77;1782550;79;21137;-56
2022/08/09 03:06:37;;;;;;;8.87;5.63;;;;;;;18.52;100.00;100504.95;1782959;79;21813;-59
2022/08/09 03:09:04;;;;;;;9.97;6.30;;;;;;;18.76;100.00;100511.60;1782467;79;20923;-56
2022/08/09 03:11:32;;;;;;;7.83;5.60;;;;;;;19.06;100.00;100512.25;1782537;79;21325;-56
2022/08/09 03:13:59;;;;;;;9.83;5.53;;;;;;;19.45;100.00;100516.45;1781982;79;21038;-57
2022/08/09 03:16:27;;;;;;;9.90;6.03;;;;;;;19.76;100.00;100515.20;1782732;80;21533;-56
2022/08/09 03:18:56;;;;;;;10.03;5.90;;;;;;;19.95;100.00;100517.12;1781433;80;22504;-58
2022/08/09 03:21:24;;;;;;;6.87;5.50;;;;;;;20.06;100.00;100509.64;1783248;79;21806;-56
2022/08/09 03:23:51;;;;;;;8.17;5.00;;;;;;;20.31;100.00;100497.87;1782451;80;21421;-58
2022/08/09 03:26:19;;;;;;;8.23;6.23;;;;;;;20.63;100.00;100496.78;1782597;79;21061;-56
2022/08/09 03:28:48;;;;;;;14.70;6.20;;;;;;;21.12;100.00;100500.34;1782326;80;20966;-57
2022/08/09 03:31:15;;;;;;;9.60;6.63;;;;;;;21.61;100.00;100491.63;1782829;80;21326;-56
2022/08/09 03:33:42;;;;;;;8.23;5.67;;;;;;;22.35;100.00;100483.00;1782481;79;20880;-62
2022/08/09 03:36:09;;;;;;;10.33;5.73;;;;;;;23.28;100.00;100488.52;1782874;79;21320;-56
2022/08/09 03:38:38;;;;;;;7.87;5.00;;;;;;;24.18;100.00;100488.66;1782386;80;21035;-56
2022/08/09 03:41:05;;;;;;;10.10;5.00;;;;;;;25.08;100.00;100485.23;1782908;80;21035;-56
2022/08/09 03:43:33;;;;;;;5.90;4.87;;;;;;;25.96;100.00;100474.59;1783044;79;21287;-56
2022/08/09 03:46:00;;;;;;;8.20;5.30;;;;;;;26.85;100.00;100477.45;1782314;79;20982;-56
2022/08/09 03:48:28;;;;;;;6.72;4.37;;;;;;;27.53;100.00;100484.33;1782826;80;20978;-56
2022/08/09 03:50:55;;;;;;;7.95;4.90;;;;;;;28.30;100.00;100475.33;1782865;79;21820;-56
2022/08/09 03:53:22;;;;;;;7.25;4.95;;;;;;;28.96;98.74;100479.17;1783050;80;21422;-56
2022/08/09 03:55:50;;;;;;;8.18;4.83;;;;;;;29.51;90.43;100481.72;1782419;79;21142;-57
2022/08/09 03:58:17;;;;;;;5.87;4.03;;;;;;;30.13;80.37;100477.82;1783175;80;21005;-58
2022/08/09 04:00:45;;;;;;;7.28;4.72;;;;;;;30.80;69.76;100474.18;1783000;79;21474;-56
2022/08/09 04:03:12;;;;;;;6.80;4.65;;;;;;;31.38;65.08;100477.03;1782566;80;20963;-56
2022/08/09 04:05:39;;;;;;;7.47;4.50;;;;;;;32.10;60.73;100475.52;1782217;80;21503;-58
2022/08/09 04:08:06;;;;;;;5.72;4.35;;;;;;;32.58;56.64;100470.34;1783235;80;22332;-56
2022/08/09 04:10:34;;;;;;;27.80;5.42;;;;;;;33.10;53.78;100471.37;1781935;80;21007;-57
2022/08/09 04:13:08;;;;;;;6.87;4.22;;;;;;;33.29;49.76;100461.45;1782284;79;21109;-58
2022/08/09 04:15:30;;;;;;;7.58;4.15;;;;;;;33.43;48.49;100460.61;1781618;79;21054;-61
2022/08/09 04:17:57;;;;;;;6.58;4.42;;;;;;;33.72;47.95;100458.13;1782227;80;21050;-58
2022/08/09 04:20:25;;;;;;;5.58;4.00;;;;;;;34.11;45.34;100458.14;1782294;79;21178;-63
2022/08/09 04:22:52;;;;;;;6.83;4.35;;;;;;;34.20;43.28;100455.31;1782959;80;21062;-56
2022/08/09 04:25:19;;;;;;;7.65;5.37;;;;;;;34.19;42.95;100458.59;1783081;80;20986;-56
2022/08/09 04:27:46;;;;;;;10.03;7.53;;;;;;;34.25;42.51;100455.11;1782246;79;20983;-56
2022/08/09 04:30:15;;;;;;;14.63;10.00;;;;;;;34.43;41.94;100459.71;1782998;80;21062;-56
2022/08/09 04:32:42;;;;;;;11.40;8.28;;;;;;;34.59;41.61;100465.50;1782633;80;21437;-56
2022/08/09 04:35:10;;;;;;;10.32;6.55;;;;;;;34.88;40.95;100458.22;1782566;79;21089;-57
2022/08/09 04:37:38;;;;;;;8.35;5.87;;;;;;;34.95;39.61;100462.49;1782074;80;21039;-56
2022/08/09 04:40:06;;;;;;;6.80;4.55;;;;;;;34.70;39.07;100459.60;1782301;80;21853;-56
2022/08/09 04:42:34;;;;;;;5.15;3.87;;;;;;;34.48;39.15;100463.56;1781803;80;20986;-65
2022/08/09 04:45:01;;;;;;;6.65;3.40;;;;;;;34.37;38.89;100459.95;1782847;80;21277;-59
2022/08/09 04:47:29;;;;;;;5.03;3.20;;;;;;;34.50;38.53;100466.17;1782217;80;21014;-56
2022/08/09 04:49:56;;;;;;;9.13;3.80;;;;;;;34.58;38.05;100465.25;1782794;80;20998;-56
2022/08/09 04:52:25;;;;;;;5.30;3.20;;;;;;;34.70;37.78;100460.95;1783212;80;21007;-56
2022/08/09 04:54:52;;;;;;;6.03;3.08;;;;;;;34.84;37.19;100460.03;1782577;80;21054;-56
2022/08/09 04:57:20;;;;;;;5.17;2.92;;;;;;;34.75;36.79;100458.03;1782099;79;22256;-57
2022/08/09 04:59:46;;;;;;;5.50;3.20;;;;;;;34.91;37.70;100453.48;1782790;80;22060;-56
2022/08/09 05:02:14;;;;;;;5.65;3.37;;;;;;;35.22;36.37;100454.77;1782908;79;21081;-55
2022/08/09 05:04:41;;;;;;;4.80;3.30;;;;;;;35.29;35.55;100459.03;1782534;79;21077;-57
2022/08/09 05:07:10;;;;;;;5.08;3.00;;;;;;;35.18;35.09;100458.73;1760022;81;20935;-56
2022/08/09 05:09:37;;;;;;;7.17;3.30;;;;;;;35.10;36.00;100452.89;1760740;81;21274;-56
2022/08/09 05:12:05;;;;;;;5.25;3.55;;;;;;;35.49;35.60;100453.98;1761164;81;21512;-58
2022/08/09 05:14:34;;;;;;;8.48;3.65;;;;;;;36.17;35.42;100457.09;1761078;81;21003;-57
2022/08/09 05:17:01;;;;;;;5.65;3.20;;;;;;;36.79;34.58;100449.23;1760208;81;20903;-61
2022/08/09 05:19:29;;;;;;;6.60;3.00;;;;;;;37.23;33.46;100453.04;1761348;81;21509;-56
2022/08/09 05:21:58;;;;;;;5.62;3.22;;;;;;;37.74;32.66;100448.77;1761278;81;21167;-56
2022/08/09 05:24:25;;;;;;;6.10;4.05;;;;;;;38.22;31.34;100449.16;1761233;80;21132;-56
2022/08/09 05:26:53;;;;;;;5.12;3.92;;;;;;;38.67;29.51;100446.14;1760661;81;20966;-59
2022/08/09 05:29:20;;;;;;;5.08;3.37;;;;;;;38.99;28.13;100441.72;1761211;81;21549;-57
2022/08/09 05:31:48;;;;;;;4.70;3.60;;;;;;;39.16;28.08;100442.48;1761427;81;21487;-56
2022/08/09 05:34:15;;;;;;;7.37;4.28;;;;;;;39.57;27.06;100439.81;1761198;81;22189;-56
2022/08/09 05:36:43;;;;;;;5.83;3.95;;;;;;;39.78;26.92;100440.05;1761563;81;21483;-56
2022/08/09 05:39:10;;;;;;;5.72;3.40;;;;;;;39.97;25.89;100435.48;1759991;81;20841;-58
2022/08/09 05:41:37;;;;;;;7.60;3.83;;;;;;;40.24;25.95;100436.90;1761544;81;21946;-58
2022/08/09 05:44:05;;;;;;;6.90;4.33;;;;;;;40.55;25.05;100437.46;1761539;81;21034;-57
2022/08/09 05:46:33;;;;;;;9.33;4.40;;;;;;;40.77;24.21;100433.69;1761332;81;21098;-56
2022/08/09 05:49:01;;;;;;;9.70;5.47;;;;;;;41.00;24.30;100436.73;1761078;81;21531;-59
2022/08/09 05:51:28;;;;;;;6.17;4.90;;;;;;;41.15;24.31;100431.50;1760906;81;21963;-56
2022/08/09 05:53:55;;;;;;;5.50;4.05;;;;;;;41.30;24.20;100431.73;1761370;81;21034;-56
2022/08/09 05:56:22;;;;;;;7.90;4.40;;;;;;;41.36;23.42;100436.22;1761336;81;20879;-58
2022/08/09 05:58:50;;;;;;;5.33;4.03;;;;;;;40.69;23.10;100438.94;1761547;81;21278;-56
2022/08/09 06:01:18;;;;;;;6.92;3.95;;;;;;;40.06;24.00;100436.74;1760133;81;20999;-57
2022/08/09 06:03:46;;;;;;;5.33;4.40;;;;;;;39.80;24.73;100439.07;1761993;81;21322;-57
2022/08/09 06:06:15;;;;;;;5.80;4.10;;;;;;;39.70;25.02;100444.44;1761248;80;21066;-57
2022/08/09 06:08:43;;;;;;;7.25;3.72;;;;;;;39.50;25.35;100439.75;1761354;81;21124;-57
2022/08/09 06:11:10;;;;;;;4.97;3.55;;;;;;;39.34;25.67;100427.71;1760510;81;22350;-60
2022/08/09 06:13:38;;;;;;;5.83;3.52;;;;;;;39.16;25.53;100438.39;1761562;81;21463;-57
2022/08/09 06:16:05;;;;;;;7.35;3.87;;;;;;;39.29;26.02;100436.24;1761344;81;21001;-57
2022/08/09 06:18:33;;;;;;;8.65;4.08;;;;;;;39.54;26.21;100435.11;1760837;81;21045;-57
2022/08/09 06:21:01;;;;;;;5.00;3.80;;;;;;;39.67;26.52;100436.41;1761208;81;21524;-57
2022/08/09 06:23:29;;;;;;;7.37;4.08;;;;;;;39.59;26.86;100430.66;1759940;81;21656;-63
2022/08/09 06:25:57;;;;;;;5.78;4.05;;;;;;;39.65;26.63;100436.77;1760979;81;21284;-57
2022/08/09 06:28:24;;;;;;;6.72;3.70;;;;;;;39.69;26.95;100436.83;1761083;81;20871;-59
2022/08/09 06:30:51;;;;;;;5.80;3.75;;;;;;;39.90;26.71;100434.88;1760499;81;21007;-60
2022/08/09 06:33:18;;;;;;;6.10;3.90;;;;;;;40.20;26.31;100440.19;1760415;81;21121;-63
2022/08/09 06:35:45;;;;;;;6.40;4.53;;;;;;;40.17;25.92;100438.80;1761261;81;21609;-57
2022/08/09 06:38:12;;;;;;;5.00;3.85;;;;;;;40.10;25.77;100442.23;1761385;81;20986;-57
2022/08/09 06:40:39;;;;;;;7.97;4.17;;;;;;;39.84;25.42;100439.88;1761043;81;20898;-57
2022/08/09 06:43:07;;;;;;;4.67;3.30;;;;;;;39.75;25.48;100442.74;1760829;81;21499;-63
2022/08/09 06:45:34;;;;;;;6.62;3.55;;;;;;;39.81;25.50;100446.67;1760322;81;20927;-58
2022/08/09 06:48:03;;;;;;;9.53;4.12;;;;;;;39.58;24.90;100440.02;1761606;81;21281;-57
2022/08/09 06:50:31;;;;;;;6.50;3.45;;;;;;;39.30;25.62;100439.95;1761993;81;20995;-58
2022/08/09 06:52:59;;;;;;;5.75;3.98;;;;;;;39.48;25.83;100437.99;1761727;81;20931;-57
2022/08/09 06:55:30;;;;;;;6.55;3.70;;;;;;;39.82;25.81;100436.77;1760054;81;21497;-59
2022/08/09 06:57:56;;;;;;;5.50;3.87;;;;;;;40.06;25.57;100448.25;1761100;81;21053;-56
2022/08/09 07:00:24;;;;;;;6.75;4.20;;;;;;;40.01;25.59;100446.66;1761038;81;21230;-57
2022/08/09 07:02:51;;;;;;;9.10;3.70;;;;;;;39.72;25.47;100449.73;1760838;81;20970;-57
2022/08/09 07:05:19;;;;;;;5.58;3.98;;;;;;;39.40;25.69;100445.29;1760858;81;22293;-63
2022/08/09 07:07:46;;;;;;;6.65;3.95;;;;;;;39.44;25.73;100445.33;1760072;80;21497;-58
2022/08/09 07:10:13;;;;;;;6.80;4.05;;;;;;;39.35;25.80;100447.78;1761022;81;21491;-57
2022/08/09 07:12:40;;;;;;;5.85;4.10;;;;;;;39.08;26.11;100446.30;1761122;81;21238;-58
2022/08/09 07:15:09;;;;;;;7.53;4.20;;;;;;;38.93;26.57;100450.20;1760795;81;21571;-58
2022/08/09 07:17:36;;;;;;;6.10;3.97;;;;;;;38.92;26.45;100443.77;1759088;81;21551;-58
2022/08/09 07:20:05;;;;;;;7.25;3.98;;;;;;;38.86;27.29;100440.58;1760917;81;21526;-57
2022/08/09 07:22:33;;;;;;;6.42;4.60;;;;;;;38.77;26.84;100442.00;1761628;81;21048;-57
2022/08/09 07:25:00;;;;;;;5.53;3.92;;;;;;;38.48;26.80;100444.91;1761547;81;21191;-58
2022/08/09 07:27:28;;;;;;;5.15;3.70;;;;;;;38.36;27.13;100437.16;1760555;81;20985;-63
2022/08/09 07:29:56;;;;;;;10.28;4.42;;;;;;;38.30;26.90;100445.42;1761329;81;21057;-55
2022/08/09 07:32:23;;;;;;;8.03;4.15;;;;;;;38.00;27.30;100438.55;1761281;81;21861;-56
2022/08/09 07:34:51;;;;;;;7.95;4.58;;;;;;;37.85;27.81;100436.14;1761086;81;20990;-56
2022/08/09 07:37:19;;;;;;;6.33;4.15;;;;;;;37.93;28.45;100435.12;1760761;81;21180;-63
2022/08/09 07:39:46;;;;;;;11.12;4.05;;;;;;;38.13;28.03;100436.40;1759823;81;20946;-64
2022/08/09 07:42:13;;;;;;;5.17;3.70;;;;;;;38.40;27.78;100432.55;1760859;81;21264;-56
2022/08/09 07:44:41;;;;;;;5.40;3.67;;;;;;;38.59;26.85;100437.09;1760401;81;21065;-56
2022/08/09 07:47:08;;;;;;;8.48;4.03;;;;;;;38.54;27.01;100431.97;1760945;81;20986;-55
2022/08/09 07:49:36;;;;;;;7.60;4.50;;;;;;;38.63;26.90;100428.97;1760472;81;21183;-60
2022/08/09 07:52:04;;;;;;;5.97;3.75;;;;;;;38.83;27.14;100422.81;1760349;81;21521;-56
2022/08/09 07:54:31;;;;;;;7.58;4.05;;;;;;;39.02;25.80;100419.95;1761438;81;21053;-57
2022/08/09 07:56:58;;;;;;;5.10;3.30;;;;;;;39.03;26.20;100416.64;1760355;81;21058;-56
2022/08/09 07:59:26;;;;;;;6.83;3.75;;;;;;;39.24;25.50;100419.61;1760360;81;20977;-57
2022/08/09 08:01:54;;;;;;;6.10;3.95;;;;;;;39.37;24.87;100415.47;1760164;81;21242;-63
2022/08/09 08:04:22;;;;;;;7.28;3.33;;;;;;;39.49;24.85;100414.41;1760793;81;21330;-56
2022/08/09 08:06:49;;;;;;;8.08;3.35;;;;;;;39.58;24.74;100412.73;1771494;79;21425;-56
2022/08/09 08:09:17;;;;;;;6.80;3.40;;;;;;;39.55;24.31;100417.57;1785440;80;20978;-58
2022/08/09 08:11:47;;;;;;;5.42;3.27;;;;;;;39.62;23.85;100412.18;1784084;80;20995;-64
2022/08/09 08:14:14;;;;;;;6.72;3.08;;;;;;;39.71;23.27;100404.51;1784835;80;21422;-56
2022/08/09 08:16:41;;;;;;;5.42;3.50;;;;;;;39.88;23.04;100405.21;1784992;79;21428;-56
2022/08/09 08:19:09;;;;;;;5.03;3.00;;;;;;;40.07;23.11;100405.53;1785147;80;20982;-57
2022/08/09 08:21:36;;;;;;;5.67;2.90;;;;;;;40.35;21.43;100407.70;1784846;79;20978;-61
2022/08/09 08:24:04;;;;;;;4.92;3.45;;;;;;;40.25;21.61;100407.05;1784425;80;20955;-59
2022/08/09 08:26:32;;;;;;;4.22;2.80;;;;;;;40.10;21.62;100408.88;1785621;80;21525;-56
2022/08/09 08:29:01;;;;;;;4.55;3.17;;;;;;;40.12;21.69;100414.78;1784807;80;21022;-56
2022/08/09 08:31:28;;;;;;;4.60;3.40;;;;;;;40.05;21.44;100407.88;1785233;79;21051;-55
2022/08/09 08:33:56;;;;;;;6.50;3.87;;;;;;;39.83;22.42;100405.57;1784530;79;20935;-57
2022/08/09 08:36:24;;;;;;;4.85;3.77;;;;;;;39.77;22.34;100409.02;1783951;80;21065;-56
2022/08/09 08:38:51;;;;;;;7.55;4.22;;;;;;;39.71;22.76;100404.51;1785183;80;21241;-56
2022/08/09 08:41:19;;;;;;;6.50;4.50;;;;;;;39.83;23.00;100402.06;1785147;80;21469;-56
2022/08/09 08:43:46;;;;;;;5.45;4.35;;;;;;;40.05;22.48;100404.38;1785546;80;20935;-55
2022/08/09 08:46:13;;;;;;;7.12;3.75;;;;;;;40.16;22.40;100397.06;1784627;80;20895;-59
2022/08/09 08:48:41;;;;;;;5.90;3.85;;;;;;;40.31;22.33;100404.17;1785247;80;21482;-55
2022/08/09 08:51:09;;;;;;;5.90;4.17;;;;;;;40.53;20.85;100397.43;1785656;79;21804;-56
2022/08/09 08:53:36;;;;;;;7.00;4.45;;;;;;;40.60;21.10;100398.27;1785861;80;20967;-55
2022/08/09 08:56:05;;;;;;;7.17;3.70;;;;;;;40.55;20.75;100393.75;1716842;80;21001;-61
2022/08/09 08:58:34;;;;;;;5.35;3.90;;;;;;;40.40;21.14;100402.45;1756475;80;20892;-55
2022/08/09 09:01:02;;;;;;;7.92;4.33;;;;;;;40.25;20.20;100390.66;1757851;80;21003;-55
2022/08/09 09:03:33;;;;;;;6.05;3.30;;;;;;;40.30;20.38;100403.95;1785281;80;22225;-56
2022/08/09 09:06:02;;;;;;;8.80;3.72;;;;;;;40.40;20.17;100395.63;1785468;80;21520;-63
2022/08/09 09:08:34;;;;;;;5.00;3.55;;;;;;;40.33;19.69;100393.63;1785793;79;22464;-55
2022/08/09 09:11:03;;;;;;;7.53;3.80;;;;;;;40.40;19.65;100392.11;1785894;79;21414;-55
2022/08/09 09:13:40;;;;;;;5.17;3.60;;;;;;;40.34;19.67;100393.83;1785655;79;21009;-55
2022/08/09 09:16:08;;;;;;;5.37;4.05;;;;;;;40.45;20.29;100399.34;1784292;80;21150;-58
2022/08/09 09:18:36;;;;;;;4.63;3.40;;;;;;;40.51;18.59;100391.00;1785291;80;21259;-55
2022/08/09 09:21:07;;;;;;;8.45;3.83;;;;;;;40.43;18.35;100390.77;1785000;79;21069;-56
2022/08/09 09:23:44;;;;;;;4.55;3.05;;;;;;;40.22;19.39;100387.33;1785651;80;21547;-62
2022/08/09 09:26:12;;;;;;;5.08;3.27;;;;;;;40.09;19.40;100386.84;1785377;79;21663;-56
2022/08/09 09:28:44;;;;;;;5.45;3.25;;;;;;;40.07;19.51;100396.56;1785214;80;21266;-55
2022/08/09 09:31:18;;;;;;;6.37;3.05;;;;;;;40.03;19.63;100386.20;1783242;79;20942;-63
2022/08/09 09:33:45;;;;;;;5.12;3.00;;;;;;;40.28;19.37;100387.17;1784502;80;21378;-56
2022/08/09 09:36:13;;;;;;;5.47;2.80;;;;;;;40.43;18.54;100385.89;1784922;80;21073;-55
2022/08/09 09:38:48;;;;;;;4.15;2.58;;;;;;;40.57;18.25;100385.96;1785008;80;21014;-55
2022/08/09 09:41:28;;;;;;;4.70;2.87;;;;;;;40.82;17.86;100381.38;1784373;80;21135;-58
2022/08/09 09:43:58;;;;;;;5.00;2.50;;;;;;;40.98;18.00;100378.88;1785233;80;22018;-55
2022/08/09 09:46:30;;;;;;;;;;;;;;;40.94;17.83;100375.35;1788039;80;20990;-56
2022/08/09 09:49:03;;;;;;;4.50;2.67;;;;;;;40.89;17.10;100364.22;1784309;79;20484;-61
2022/08/09 09:51:33;;;;;;;4.35;2.27;;;;;;;40.80;17.13;100363.78;1784702;80;21093;-56
2022/08/09 09:54:07;;;;;;;5.65;3.00;;;;;;;40.89;17.15;100365.58;1784522;79;24716;-55
2022/08/09 09:56:37;;;;;;;3.50;2.17;;;;;;;41.06;17.48;100364.08;1785083;79;20935;-63
2022/08/09 09:59:04;;;;;;;;;;;;;;;41.31;16.50;100366.27;1787034;80;21529;-56
2022/08/09 10:01:31;;;;;;;2.60;1.80;;;;;;;41.37;16.73;100373.52;1785128;79;20146;-56
2022/08/09 10:03:58;;;;;;;3.52;1.65;;;;;;;41.45;15.33;100363.38;1785406;79;21053;-56
2022/08/09 10:06:28;;;;;;;4.35;2.10;;;;;;;41.38;15.66;100365.49;1785128;80;21144;-56
2022/08/09 10:09:02;;;;;;;4.92;1.90;;;;;;;41.09;15.97;100369.55;1758404;81;21519;-63
2022/08/09 10:11:32;;;;;;;5.70;2.25;;;;;;;40.93;16.06;100361.50;1761343;81;21402;-55
2022/08/09 10:13:59;;;;;;;4.17;2.10;;;;;;;41.01;16.77;100354.89;1761362;81;21035;-56
2022/08/09 10:16:32;;;;;;;5.35;2.08;;;;;;;41.48;16.57;100359.25;1761385;81;20986;-57
2022/08/09 10:19:03;;;;;;;4.83;2.45;;;;;;;42.11;16.49;100345.13;1761028;81;21379;-56
2022/08/09 10:21:30;;;;;;;;;;;;;;;42.57;15.70;100344.95;1764162;81;21804;-56
2022/08/09 10:24:03;;;;;;;4.10;2.20;;;;;;;42.78;15.17;100341.95;1761360;81;20213;-56
2022/08/09 10:26:30;;;;;;;2.80;1.80;;;;;;;42.58;15.48;100346.52;1760484;81;21527;-58
2022/08/09 10:28:57;;;;;;;3.22;2.47;;;;;;;42.33;14.76;100341.16;1760571;81;21463;-56
2022/08/09 10:31:25;;;;;;;3.77;2.10;;;;;;;42.22;14.70;100342.53;1761166;81;21131;-57
2022/08/09 10:33:52;;;;;;;4.25;2.12;;;;;;;42.21;14.71;100341.58;1761345;81;21036;-56
2022/08/09 10:36:19;;;;;;;7.37;2.52;;;;;;;42.38;15.35;100344.07;1761290;81;21468;-63
2022/08/09 10:38:46;;;;;;;5.50;2.95;;;;;;;42.54;15.19;100340.27;1759929;81;21537;-59
2022/08/09 10:41:14;;;;;;;5.17;3.00;;;;;;;42.39;15.54;100337.41;1761440;81;21060;-56
2022/08/09 10:43:47;;;;;;;6.42;2.77;;;;;;;42.27;16.32;100344.88;1761076;81;21152;-57
2022/08/09 10:46:56;;;;;;;7.15;3.30;;;;;;;42.03;16.26;100343.77;1761280;81;20970;-56
2022/08/09 10:49:49;;;;;;;18.57;4.33;;;;;;;41.61;16.05;100336.39;1761718;81;21445;-56
2022/08/09 10:52:36;;;;;;;4.72;3.27;;;;;;;41.54;16.59;100329.55;1760334;81;21462;-56
2022/08/09 10:55:28;;;;;;;3.92;3.12;;;;;;;41.86;16.84;100339.69;1761405;81;20994;-56
2022/08/09 10:57:55;;;;;;;6.25;2.95;;;;;;;42.00;16.75;100328.13;1759308;81;21467;-56
2022/08/09 11:00:36;;;;;;;3.95;3.05;;;;;;;42.09;16.59;100319.51;1729692;81;21026;-56
2022/08/09 11:03:22;;;;;;;7.12;4.15;;;;;;;42.04;16.51;100329.48;1759501;81;21121;-62
2022/08/09 11:06:22;;;;;;;6.40;3.30;;;;;;;41.50;16.74;100331.52;1761389;81;20967;-56
2022/08/09 11:08:51;;;;;;;5.60;3.52;;;;;;;41.06;17.24;100335.36;1780354;80;21565;-56
2022/08/09 11:11:18;;;;;;;5.70;3.52;;;;;;;40.67;17.34;100329.80;1783804;80;21070;-56
2022/08/09 11:13:46;;;;;;;6.45;3.47;;;;;;;40.20;17.39;100331.55;1783784;79;20994;-56
2022/08/09 11:16:36;;;;;;;5.37;3.12;;;;;;;39.96;17.74;100337.02;1732526;80;21492;-63
2022/08/09 11:19:05;;;;;;;5.55;3.40;;;;;;;39.95;18.25;100328.64;1783572;80;21497;-56
2022/08/09 11:21:55;;;;;;;6.05;3.40;;;;;;;40.28;17.73;100322.22;1783105;80;20995;-57
2022/08/09 11:24:22;;;;;;;4.85;3.40;;;;;;;40.68;17.43;100324.52;1783256;80;21847;-56
2022/08/09 11:26:51;;;;;;;6.30;3.83;;;;;;;40.47;17.78;100322.48;1783072;80;20975;-56
2022/08/09 11:29:54;;;;;;;4.15;3.05;;;;;;;40.37;17.56;100323.41;1783045;80;20970;-56
2022/08/09 11:32:52;;;;;;;4.90;3.70;;;;;;;40.27;17.55;100318.70;1725213;83;21568;-56
2022/08/09 11:35:19;;;;;;;7.30;3.05;;;;;;;40.30;17.93;100322.02;1777545;80;20991;-59
2022/08/09 11:37:48;;;;;;;4.42;3.22;;;;;;;40.24;18.11;100322.78;1783162;80;21371;-56